sensor_id;sensor_type;location;lat;lon;timestamp;pressure;altitude;pressure_sealevel;temperature;humidity
10261;BME280;5175;42.606;23.388;2023-12-20T00:02:14;94084.59;;;0.09;100.00
10261;BME280;5175;42.606;23.388;2023-12-20T00:04:41;94086.09;;;-0.15;100.00
10261;BME280;5175;42.606;23.388;2023-12-20T00:07:08;94080.28;;;-0.30;100.00
10261;BME280;5175;42.606;23.388;2023-12-20T00:09:34;94072.44;;;-0.43;100.00
10261;BME280;5175;42.606;23.388;2023-12-20T00:12:02;94071.22;;;-0.41;100.00
10261;BME280;5175;42.606;23.388;2023-12-20T00:14:29;94079.31;;;-0.49;100.00
10261;BME280;5175;42.606;23.388;2023-12-20T00:16:56;94069.03;;;-0.44;100.00
10261;BME280;5175;42.606;23.388;2023-12-20T00:19:23;94072.56;;;-0.12;100.00
10261;BME280;5175;42.606;23.388;2023-12-20T00:21:49;94071.81;;;-0.26;100.00
10261;BME280;5175;42.606;23.388;2023-12-20T00:24:16;94069.34;;;-0.14;100.00
10261;BME280;5175;42.606;23.388;2023-12-20T00:26:43;94064.69;;;-0.06;100.00
10261;BME280;5175;42.606;23.388;2023-12-20T00:29:11;94066.81;;;-0.53;100.00
10261;BME280;5175;42.606;23.388;2023-12-20T00:31:37;94058.31;;;-0.29;100.00
10261;BME280;5175;42.606;23.388;2023-12-20T00:34:04;94057.91;;;-0.26;100.00
10261;BME280;5175;42.606;23.388;2023-12-20T00:36:31;94056.84;;;-0.12;100.00
10261;BME280;5175;42.606;23.388;2023-12-20T00:38:57;94046.81;;;-0.35;100.00
10261;BME280;5175;42.606;23.388;2023-12-20T00:41:24;94042.75;;;-0.24;100.00
10261;BME280;5175;42.606;23.388;2023-12-20T00:43:51;94033.28;;;-0.19;100.00
10261;BME280;5175;42.606;23.388;2023-12-20T00:46:19;94031.22;;;-0.10;100.00
10261;BME280;5175;42.606;23.388;2023-12-20T00:48:46;94031.22;;;-0.10;100.00
10261;BME280;5175;42.606;23.388;2023-12-20T00:51:13;94021.41;;;-0.34;100.00
10261;BME280;5175;42.606;23.388;2023-12-20T00:53:39;94025.41;;;-0.19;100.00
10261;BME280;5175;42.606;23.388;2023-12-20T00:56:06;94022.31;;;-0.03;100.00
10261;BME280;5175;42.606;23.388;2023-12-20T00:58:33;94030.97;;;-0.02;100.00
10261;BME280;5175;42.606;23.388;2023-12-20T01:01:00;94022.88;;;-0.51;100.00
10261;BME280;5175;42.606;23.388;2023-12-20T01:03:28;94012.63;;;-0.59;100.00
10261;BME280;5175;42.606;23.388;2023-12-20T01:05:55;94005.88;;;-0.36;100.00
10261;BME280;5175;42.606;23.388;2023-12-20T01:08:22;94005.69;;;-0.34;100.00
10261;BME280;5175;42.606;23.388;2023-12-20T01:10:49;93979.13;;;-0.44;100.00
10261;BME280;5175;42.606;23.388;2023-12-20T01:13:15;93999.97;;;-0.12;100.00
10261;BME280;5175;42.606;23.388;2023-12-20T01:15:42;94002.81;;;-0.20;100.00
10261;BME280;5175;42.606;23.388;2023-12-20T01:18:09;93996.22;;;-0.35;100.00
10261;BME280;5175;42.606;23.388;2023-12-20T01:20:37;93984.09;;;-0.30;100.00
10261;BME280;5175;42.606;23.388;2023-12-20T01:23:03;93998.66;;;-0.40;100.00
10261;BME280;5175;42.606;23.388;2023-12-20T01:25:30;93986.19;;;-0.58;100.00
10261;BME280;5175;42.606;23.388;2023-12-20T01:27:57;93973.16;;;-0.78;100.00
10261;BME280;5175;42.606;23.388;2023-12-20T01:30:24;93971.94;;;-0.75;100.00
10261;BME280;5175;42.606;23.388;2023-12-20T01:32:50;93977.97;;;-0.68;100.00
10261;BME280;5175;42.606;23.388;2023-12-20T01:35:17;93977.16;;;-0.62;100.00
10261;BME280;5175;42.606;23.388;2023-12-20T01:37:45;93974.09;;;-0.59;100.00
10261;BME280;5175;42.606;23.388;2023-12-20T01:40:12;93967.31;;;-0.73;100.00
10261;BME280;5175;42.606;23.388;2023-12-20T01:42:39;93968.13;;;-0.86;100.00
10261;BME280;5175;42.606;23.388;2023-12-20T01:45:06;93967.09;;;-0.65;100.00
10261;BME280;5175;42.606;23.388;2023-12-20T01:47:33;93962.66;;;-0.65;100.00
10261;BME280;5175;42.606;23.388;2023-12-20T01:50:00;93948.97;;;-0.73;100.00
10261;BME280;5175;42.606;23.388;2023-12-20T01:52:29;93954.00;;;-0.78;100.00
10261;BME280;5175;42.606;23.388;2023-12-20T01:54:57;93955.63;;;-0.84;100.00
10261;BME280;5175;42.606;23.388;2023-12-20T01:57:28;93942.53;;;-0.84;100.00
10261;BME280;5175;42.606;23.388;2023-12-20T01:59:55;93943.13;;;-0.75;100.00
10261;BME280;5175;42.606;23.388;2023-12-20T02:02:22;93932.25;;;-0.79;100.00
10261;BME280;5175;42.606;23.388;2023-12-20T02:04:49;93933.28;;;-0.86;100.00
10261;BME280;5175;42.606;23.388;2023-12-20T02:07:16;93927.19;;;-0.74;100.00
10261;BME280;5175;42.606;23.388;2023-12-20T02:09:43;93936.50;;;-0.78;100.00
10261;BME280;5175;42.606;23.388;2023-12-20T02:12:12;93932.84;;;-0.77;100.00
10261;BME280;5175;42.606;23.388;2023-12-20T02:14:39;93931.84;;;-0.76;100.00
10261;BME280;5175;42.606;23.388;2023-12-20T02:17:06;93927.56;;;-0.64;100.00
10261;BME280;5175;42.606;23.388;2023-12-20T02:19:32;93925.81;;;-0.76;100.00
10261;BME280;5175;42.606;23.388;2023-12-20T02:22:08;93924.19;;;-0.71;100.00
10261;BME280;5175;42.606;23.388;2023-12-20T02:24:35;93916.47;;;-0.59;100.00
10261;BME280;5175;42.606;23.388;2023-12-20T02:27:02;93918.75;;;-0.76;100.00
10261;BME280;5175;42.606;23.388;2023-12-20T02:29:29;93914.31;;;-0.75;100.00
10261;BME280;5175;42.606;23.388;2023-12-20T02:31:55;93908.97;;;-1.06;100.00
10261;BME280;5175;42.606;23.388;2023-12-20T02:34:22;93907.72;;;-0.97;100.00
10261;BME280;5175;42.606;23.388;2023-12-20T02:36:49;93903.84;;;-0.75;100.00
10261;BME280;5175;42.606;23.388;2023-12-20T02:39:18;93876.28;;;-0.91;100.00
10261;BME280;5175;42.606;23.388;2023-12-20T02:41:45;93893.63;;;-0.96;100.00
10261;BME280;5175;42.606;23.388;2023-12-20T02:44:12;93891.19;;;-0.91;100.00
10261;BME280;5175;42.606;23.388;2023-12-20T02:46:38;93898.00;;;-0.77;100.00
10261;BME280;5175;42.606;23.388;2023-12-20T02:49:05;93896.41;;;-0.78;100.00
10261;BME280;5175;42.606;23.388;2023-12-20T02:51:32;93886.75;;;-0.84;100.00
10261;BME280;5175;42.606;23.388;2023-12-20T02:53:59;93885.16;;;-0.85;100.00
10261;BME280;5175;42.606;23.388;2023-12-20T02:56:27;93873.09;;;-0.99;100.00
10261;BME280;5175;42.606;23.388;2023-12-20T02:58:54;93890.97;;;-0.90;100.00
10261;BME280;5175;42.606;23.388;2023-12-20T03:01:20;93878.09;;;-0.91;100.00
10261;BME280;5175;42.606;23.388;2023-12-20T03:03:47;93887.13;;;-0.81;100.00
10261;BME280;5175;42.606;23.388;2023-12-20T03:06:16;93880.50;;;-0.90;100.00
10261;BME280;5175;42.606;23.388;2023-12-20T03:08:43;93884.69;;;-0.76;100.00
10261;BME280;5175;42.606;23.388;2023-12-20T03:11:10;93882.50;;;-0.79;100.00
10261;BME280;5175;42.606;23.388;2023-12-20T03:13:38;93882.09;;;-0.82;100.00
10261;BME280;5175;42.606;23.388;2023-12-20T03:16:08;93880.91;;;-0.86;100.00
10261;BME280;5175;42.606;23.388;2023-12-20T03:18:35;93891.16;;;-0.78;100.00
10261;BME280;5175;42.606;23.388;2023-12-20T03:21:02;93891.16;;;-0.85;100.00
10261;BME280;5175;42.606;23.388;2023-12-20T03:23:29;93888.53;;;-0.85;100.00
10261;BME280;5175;42.606;23.388;2023-12-20T03:25:57;93883.13;;;-0.90;100.00
10261;BME280;5175;42.606;23.388;2023-12-20T03:28:24;93884.34;;;-0.92;100.00
10261;BME280;5175;42.606;23.388;2023-12-20T03:30:52;93884.59;;;-1.00;100.00
10261;BME280;5175;42.606;23.388;2023-12-20T03:33:19;93881.53;;;-0.91;100.00
10261;BME280;5175;42.606;23.388;2023-12-20T03:35:46;93874.72;;;-0.98;100.00
10261;BME280;5175;42.606;23.388;2023-12-20T03:38:13;93868.91;;;-1.13;100.00
10261;BME280;5175;42.606;23.388;2023-12-20T03:40:39;93867.66;;;-0.98;100.00
10261;BME280;5175;42.606;23.388;2023-12-20T03:43:06;93874.31;;;-1.02;100.00
10261;BME280;5175;42.606;23.388;2023-12-20T03:45:33;93873.09;;;-0.99;100.00
10261;BME280;5175;42.606;23.388;2023-12-20T03:48:01;93865.81;;;-0.97;100.00
10261;BME280;5175;42.606;23.388;2023-12-20T03:50:28;93870.69;;;-1.07;100.00
10261;BME280;5175;42.606;23.388;2023-12-20T03:52:55;93864.66;;;-1.08;100.00
10261;BME280;5175;42.606;23.388;2023-12-20T03:55:22;93865.25;;;-1.12;100.00
10261;BME280;5175;42.606;23.388;2023-12-20T03:57:49;93858.59;;;-1.02;100.00
10261;BME280;5175;42.606;23.388;2023-12-20T04:00:15;93856.41;;;-1.11;100.00
10261;BME280;5175;42.606;23.388;2023-12-20T04:02:42;93857.44;;;-1.19;100.00
10261;BME280;5175;42.606;23.388;2023-12-20T04:05:10;93860.06;;;-1.39;100.00
10261;BME280;5175;42.606;23.388;2023-12-20T04:07:38;93850.81;;;-1.41;100.00
10261;BME280;5175;42.606;23.388;2023-12-20T04:10:05;93850.63;;;-1.33;100.00
10261;BME280;5175;42.606;23.388;2023-12-20T04:12:32;93847.16;;;-1.20;100.00
10261;BME280;5175;42.606;23.388;2023-12-20T04:14:59;93847.41;;;-1.48;100.00
10261;BME280;5175;42.606;23.388;2023-12-20T04:17:26;93849.63;;;-1.39;100.00
10261;BME280;5175;42.606;23.388;2023-12-20T04:19:52;93839.56;;;-1.35;100.00
10261;BME280;5175;42.606;23.388;2023-12-20T04:22:21;93838.16;;;-1.51;100.00
10261;BME280;5175;42.606;23.388;2023-12-20T04:24:47;93839.38;;;-1.34;100.00
10261;BME280;5175;42.606;23.388;2023-12-20T04:27:14;93835.34;;;-1.43;100.00
10261;BME280;5175;42.606;23.388;2023-12-20T04:29:41;93829.50;;;-1.38;100.00
10261;BME280;5175;42.606;23.388;2023-12-20T04:32:08;93832.50;;;-1.35;100.00
10261;BME280;5175;42.606;23.388;2023-12-20T04:34:34;93833.94;;;-1.45;100.00
10261;BME280;5175;42.606;23.388;2023-12-20T04:37:01;93825.88;;;-1.37;100.00
10261;BME280;5175;42.606;23.388;2023-12-20T04:39:29;93817.41;;;-1.33;100.00
10261;BME280;5175;42.606;23.388;2023-12-20T04:41:56;93815.81;;;-1.34;100.00
10261;BME280;5175;42.606;23.388;2023-12-20T04:44:23;93816.00;;;-1.29;100.00
10261;BME280;5175;42.606;23.388;2023-12-20T04:46:50;93817.03;;;-1.43;100.00
10261;BME280;5175;42.606;23.388;2023-12-20T04:49:16;93803.59;;;-1.79;100.00
10261;BME280;5175;42.606;23.388;2023-12-20T04:51:43;93802.38;;;-1.63;100.00
10261;BME280;5175;42.606;23.388;2023-12-20T04:54:10;93810.38;;;-1.39;100.00
10261;BME280;5175;42.606;23.388;2023-12-20T04:56:38;93800.13;;;-1.40;100.00
10261;BME280;5175;42.606;23.388;2023-12-20T04:59:05;93801.97;;;-1.60;100.00
10261;BME280;5175;42.606;23.388;2023-12-20T05:01:32;93805.97;;;-1.45;100.00
10261;BME280;5175;42.606;23.388;2023-12-20T05:03:59;93807.00;;;-1.52;100.00
10261;BME280;5175;42.606;23.388;2023-12-20T05:06:25;93797.13;;;-1.50;100.00
10261;BME280;5175;42.606;23.388;2023-12-20T05:08:52;93811.81;;;-1.49;100.00
10261;BME280;5175;42.606;23.388;2023-12-20T05:11:19;93800.78;;;-1.84;100.00
10261;BME280;5175;42.606;23.388;2023-12-20T05:13:47;93792.72;;;-1.63;100.00
10261;BME280;5175;42.606;23.388;2023-12-20T05:16:13;93797.38;;;-1.78;100.00
10261;BME280;5175;42.606;23.388;2023-12-20T05:18:43;93799.22;;;-1.98;100.00
10261;BME280;5175;42.606;23.388;2023-12-20T05:21:09;93791.53;;;-2.13;100.00
10261;BME280;5175;42.606;23.388;2023-12-20T05:23:36;93781.09;;;-2.19;100.00
10261;BME280;5175;42.606;23.388;2023-12-20T05:26:03;93781.91;;;-1.86;100.00
10261;BME280;5175;42.606;23.388;2023-12-20T05:28:30;93774.88;;;-1.99;100.00
10261;BME280;5175;42.606;23.388;2023-12-20T05:30:58;93775.28;;;-2.15;100.00
10261;BME280;5175;42.606;23.388;2023-12-20T05:33:24;93770.25;;;-1.90;100.00
10261;BME280;5175;42.606;23.388;2023-12-20T05:35:51;93775.06;;;-1.94;100.00
10261;BME280;5175;42.606;23.388;2023-12-20T05:38:18;93774.47;;;-1.82;100.00
10261;BME280;5175;42.606;23.388;2023-12-20T05:40:44;93768.22;;;-1.88;100.00
10261;BME280;5175;42.606;23.388;2023-12-20T05:43:11;93764.41;;;-1.85;100.00
10261;BME280;5175;42.606;23.388;2023-12-20T05:45:38;93767.84;;;-1.98;100.00
10261;BME280;5175;42.606;23.388;2023-12-20T05:48:06;93765.59;;;-1.81;100.00
10261;BME280;5175;42.606;23.388;2023-12-20T05:50:33;93770.44;;;-1.85;100.00
10261;BME280;5175;42.606;23.388;2023-12-20T05:53:01;93765.75;;;-1.63;100.00
10261;BME280;5175;42.606;23.388;2023-12-20T05:55:27;93762.16;;;-1.62;100.00
10261;BME280;5175;42.606;23.388;2023-12-20T05:57:54;93760.72;;;-1.58;100.00
10261;BME280;5175;42.606;23.388;2023-12-20T06:00:21;93763.75;;;-1.61;100.00
10261;BME280;5175;42.606;23.388;2023-12-20T06:02:47;93754.31;;;-1.69;100.00
10261;BME280;5175;42.606;23.388;2023-12-20T06:05:15;93752.09;;;-1.65;100.00
10261;BME280;5175;42.606;23.388;2023-12-20T06:07:42;93751.94;;;-1.83;100.00
10261;BME280;5175;42.606;23.388;2023-12-20T06:10:10;93720.97;;;-2.00;100.00
10261;BME280;5175;42.606;23.388;2023-12-20T06:12:37;93739.91;;;-2.11;100.00
10261;BME280;5175;42.606;23.388;2023-12-20T06:15:04;93746.91;;;-1.85;100.00
10261;BME280;5175;42.606;23.388;2023-12-20T06:17:31;93758.50;;;-1.61;100.00
10261;BME280;5175;42.606;23.388;2023-12-20T06:19:58;93754.47;;;-1.51;100.00
10261;BME280;5175;42.606;23.388;2023-12-20T06:22:26;93759.25;;;-1.41;100.00
10261;BME280;5175;42.606;23.388;2023-12-20T06:24:52;93754.78;;;-1.28;100.00
10261;BME280;5175;42.606;23.388;2023-12-20T06:27:19;93771.06;;;-1.19;100.00
10261;BME280;5175;42.606;23.388;2023-12-20T06:29:46;93763.81;;;-1.17;100.00
10261;BME280;5175;42.606;23.388;2023-12-20T06:32:12;93763.41;;;-1.20;100.00
10261;BME280;5175;42.606;23.388;2023-12-20T06:34:39;93760.63;;;-1.26;100.00
10261;BME280;5175;42.606;23.388;2023-12-20T06:37:06;93772.06;;;-1.13;100.00
10261;BME280;5175;42.606;23.388;2023-12-20T06:39:34;93752.06;;;-1.01;100.00
10261;BME280;5175;42.606;23.388;2023-12-20T06:42:01;93758.13;;;-1.01;100.00
10261;BME280;5175;42.606;23.388;2023-12-20T06:44:27;93753.81;;;-1.33;100.00
10261;BME280;5175;42.606;23.388;2023-12-20T06:46:54;93748.69;;;-1.08;100.00
10261;BME280;5175;42.606;23.388;2023-12-20T06:49:21;93742.72;;;-0.84;100.00
10261;BME280;5175;42.606;23.388;2023-12-20T06:51:47;93741.00;;;-1.03;100.00
10261;BME280;5175;42.606;23.388;2023-12-20T06:54:14;93738.97;;;-0.64;100.00
10261;BME280;5175;42.606;23.388;2023-12-20T06:56:42;93741.03;;;-0.41;100.00
10261;BME280;5175;42.606;23.388;2023-12-20T06:59:09;93732.16;;;-0.40;100.00
10261;BME280;5175;42.606;23.388;2023-12-20T07:01:35;93738.78;;;-0.13;100.00
10261;BME280;5175;42.606;23.388;2023-12-20T07:04:03;93734.97;;;0.08;100.00
10261;BME280;5175;42.606;23.388;2023-12-20T07:06:30;93732.34;;;0.33;100.00
10261;BME280;5175;42.606;23.388;2023-12-20T07:08:56;93734.59;;;0.47;100.00
10261;BME280;5175;42.606;23.388;2023-12-20T07:11:23;93727.59;;;0.59;100.00
10261;BME280;5175;42.606;23.388;2023-12-20T07:13:52;93726.34;;;0.62;100.00
10261;BME280;5175;42.606;23.388;2023-12-20T07:16:18;93722.19;;;0.73;100.00
10261;BME280;5175;42.606;23.388;2023-12-20T07:18:45;93722.50;;;0.64;100.00
10261;BME280;5175;42.606;23.388;2023-12-20T07:21:12;93721.19;;;0.74;100.00
10261;BME280;5175;42.606;23.388;2023-12-20T07:23:39;93717.63;;;1.16;100.00
10261;BME280;5175;42.606;23.388;2023-12-20T07:26:05;93720.31;;;1.27;100.00
10261;BME280;5175;42.606;23.388;2023-12-20T07:28:32;93714.91;;;1.22;100.00
10261;BME280;5175;42.606;23.388;2023-12-20T07:31:00;93714.63;;;1.31;100.00
10261;BME280;5175;42.606;23.388;2023-12-20T07:33:27;93705.63;;;1.50;100.00
10261;BME280;5175;42.606;23.388;2023-12-20T07:35:53;93711.19;;;1.30;100.00
10261;BME280;5175;42.606;23.388;2023-12-20T07:38:20;93707.44;;;1.38;100.00
10261;BME280;5175;42.606;23.388;2023-12-20T07:40:47;93720.03;;;1.17;100.00
10261;BME280;5175;42.606;23.388;2023-12-20T07:43:14;93727.72;;;1.01;100.00
10261;BME280;5175;42.606;23.388;2023-12-20T07:45:40;93718.47;;;0.80;100.00
10261;BME280;5175;42.606;23.388;2023-12-20T07:48:08;93716.91;;;0.61;100.00
10261;BME280;5175;42.606;23.388;2023-12-20T07:50:35;93724.63;;;0.74;100.00
10261;BME280;5175;42.606;23.388;2023-12-20T07:53:02;93716.16;;;0.72;100.00
10261;BME280;5175;42.606;23.388;2023-12-20T07:55:29;93714.13;;;0.56;100.00
10261;BME280;5175;42.606;23.388;2023-12-20T07:57:57;93718.78;;;0.54;100.00
10261;BME280;5175;42.606;23.388;2023-12-20T08:00:24;93714.34;;;0.54;100.00
10261;BME280;5175;42.606;23.388;2023-12-20T08:02:50;93715.72;;;0.75;100.00
10261;BME280;5175;42.606;23.388;2023-12-20T08:05:18;93708.72;;;0.69;100.00
10261;BME280;5175;42.606;23.388;2023-12-20T08:07:45;93702.72;;;0.80;100.00
10261;BME280;5175;42.606;23.388;2023-12-20T08:10:12;93702.22;;;1.19;100.00
10261;BME280;5175;42.606;23.388;2023-12-20T08:12:39;93694.44;;;1.54;100.00
10261;BME280;5175;42.606;23.388;2023-12-20T08:15:06;93692.44;;;1.79;100.00
10261;BME280;5175;42.606;23.388;2023-12-20T08:17:33;93701.13;;;2.03;100.00
10261;BME280;5175;42.606;23.388;2023-12-20T08:20:00;93685.09;;;1.58;100.00
10261;BME280;5175;42.606;23.388;2023-12-20T08:22:28;93688.75;;;1.69;100.00
10261;BME280;5175;42.606;23.388;2023-12-20T08:24:55;93681.91;;;1.91;100.00
10261;BME280;5175;42.606;23.388;2023-12-20T08:27:21;93678.50;;;2.25;100.00
10261;BME280;5175;42.606;23.388;2023-12-20T08:29:48;93683.06;;;2.07;100.00
10261;BME280;5175;42.606;23.388;2023-12-20T08:32:16;93681.94;;;2.14;100.00
10261;BME280;5175;42.606;23.388;2023-12-20T08:34:42;93679.75;;;2.11;100.00
10261;BME280;5175;42.606;23.388;2023-12-20T08:37:09;93661.00;;;2.08;100.00
10261;BME280;5175;42.606;23.388;2023-12-20T08:39:37;93664.91;;;2.05;100.00
10261;BME280;5175;42.606;23.388;2023-12-20T08:42:04;93663.84;;;2.06;100.00
10261;BME280;5175;42.606;23.388;2023-12-20T08:44:31;93657.13;;;2.10;100.00
10261;BME280;5175;42.606;23.388;2023-12-20T08:46:57;93664.53;;;2.13;100.00
10261;BME280;5175;42.606;23.388;2023-12-20T08:49:24;93637.44;;;2.01;100.00
10261;BME280;5175;42.606;23.388;2023-12-20T08:51:51;93651.03;;;1.98;100.00
10261;BME280;5175;42.606;23.388;2023-12-20T08:54:18;93656.75;;;2.30;100.00
10261;BME280;5175;42.606;23.388;2023-12-20T08:56:46;93654.03;;;2.02;100.00
10261;BME280;5175;42.606;23.388;2023-12-20T08:59:13;93648.97;;;1.88;100.00
10261;BME280;5175;42.606;23.388;2023-12-20T09:01:39;93647.50;;;2.04;100.00
10261;BME280;5175;42.606;23.388;2023-12-20T09:04:06;93621.19;;;1.81;100.00
10261;BME280;5175;42.606;23.388;2023-12-20T09:06:33;93626.88;;;1.55;100.00
10261;BME280;5175;42.606;23.388;2023-12-20T09:08:59;93626.00;;;1.61;100.00
10261;BME280;5175;42.606;23.388;2023-12-20T09:11:26;93611.13;;;1.55;100.00
10261;BME280;5175;42.606;23.388;2023-12-20T09:13:54;93604.97;;;1.61;100.00
10261;BME280;5175;42.606;23.388;2023-12-20T09:16:21;93601.88;;;1.64;100.00
10261;BME280;5175;42.606;23.388;2023-12-20T09:18:47;93584.38;;;1.46;100.00
10261;BME280;5175;42.606;23.388;2023-12-20T09:21:14;93577.25;;;1.23;100.00
10261;BME280;5175;42.606;23.388;2023-12-20T09:23:41;93578.66;;;1.72;100.00
10261;BME280;5175;42.606;23.388;2023-12-20T09:26:07;93575.44;;;1.94;100.00
10261;BME280;5175;42.606;23.388;2023-12-20T09:28:34;93561.06;;;1.84;100.00
10261;BME280;5175;42.606;23.388;2023-12-20T09:31:04;93560.00;;;1.97;100.00
10261;BME280;5175;42.606;23.388;2023-12-20T09:33:32;93528.03;;;1.77;100.00
10261;BME280;5175;42.606;23.388;2023-12-20T09:35:58;93546.50;;;2.05;100.00
10261;BME280;5175;42.606;23.388;2023-12-20T09:38:25;93554.00;;;2.25;100.00
10261;BME280;5175;42.606;23.388;2023-12-20T09:40:52;93546.34;;;2.23;100.00
10261;BME280;5175;42.606;23.388;2023-12-20T09:43:20;93536.47;;;2.30;100.00
10261;BME280;5175;42.606;23.388;2023-12-20T09:45:53;93525.28;;;2.23;100.00
10261;BME280;5175;42.606;23.388;2023-12-20T09:48:21;93531.50;;;2.45;100.00
10261;BME280;5175;42.606;23.388;2023-12-20T09:50:48;93535.75;;;2.75;100.00
10261;BME280;5175;42.606;23.388;2023-12-20T09:53:15;93538.72;;;2.95;100.00
10261;BME280;5175;42.606;23.388;2023-12-20T09:55:44;93523.47;;;3.13;100.00
10261;BME280;5175;42.606;23.388;2023-12-20T09:58:11;93518.69;;;3.10;100.00
10261;BME280;5175;42.606;23.388;2023-12-20T10:00:37;93529.47;;;3.42;100.00
10261;BME280;5175;42.606;23.388;2023-12-20T10:03:06;93517.09;;;3.59;100.00
10261;BME280;5175;42.606;23.388;2023-12-20T10:05:34;93497.22;;;3.73;100.00
10261;BME280;5175;42.606;23.388;2023-12-20T10:08:01;93494.44;;;3.63;100.00
10261;BME280;5175;42.606;23.388;2023-12-20T10:10:28;93495.72;;;4.21;100.00
10261;BME280;5175;42.606;23.388;2023-12-20T10:13:02;93498.56;;;4.63;100.00
10261;BME280;5175;42.606;23.388;2023-12-20T10:15:28;93496.06;;;4.51;100.00
10261;BME280;5175;42.606;23.388;2023-12-20T10:17:56;93498.91;;;4.71;100.00
10261;BME280;5175;42.606;23.388;2023-12-20T10:20:23;93496.75;;;4.68;100.00
10261;BME280;5175;42.606;23.388;2023-12-20T10:22:51;93492.28;;;4.69;100.00
10261;BME280;5175;42.606;23.388;2023-12-20T10:25:19;93482.97;;;4.61;100.00
10261;BME280;5175;42.606;23.388;2023-12-20T10:27:46;93486.97;;;4.90;100.00
10261;BME280;5175;42.606;23.388;2023-12-20T10:30:13;93479.94;;;4.74;100.00
10261;BME280;5175;42.606;23.388;2023-12-20T10:32:40;93485.84;;;4.86;100.00
10261;BME280;5175;42.606;23.388;2023-12-20T10:35:08;93483.88;;;4.72;100.00
10261;BME280;5175;42.606;23.388;2023-12-20T10:37:35;93473.44;;;4.87;100.00
10261;BME280;5175;42.606;23.388;2023-12-20T10:40:05;93472.72;;;4.43;100.00
10261;BME280;5175;42.606;23.388;2023-12-20T10:42:32;93466.03;;;4.89;100.00
10261;BME280;5175;42.606;23.388;2023-12-20T10:45:01;93448.47;;;5.04;100.00
10261;BME280;5175;42.606;23.388;2023-12-20T10:47:30;93449.16;;;4.90;100.00
10261;BME280;5175;42.606;23.388;2023-12-20T10:49:59;93441.25;;;4.95;100.00
10261;BME280;5175;42.606;23.388;2023-12-20T10:52:27;93447.59;;;4.94;100.00
10261;BME280;5175;42.606;23.388;2023-12-20T10:54:56;93446.59;;;5.00;100.00
10261;BME280;5175;42.606;23.388;2023-12-20T10:57:25;93424.84;;;4.61;100.00
10261;BME280;5175;42.606;23.388;2023-12-20T10:59:54;93431.94;;;4.87;100.00
10261;BME280;5175;42.606;23.388;2023-12-20T11:02:21;93430.88;;;4.88;100.00
10261;BME280;5175;42.606;23.388;2023-12-20T11:04:53;93427.66;;;5.13;100.00
10261;BME280;5175;42.606;23.388;2023-12-20T11:07:28;93414.00;;;4.89;100.00
10261;BME280;5175;42.606;23.388;2023-12-20T11:09:59;93398.81;;;5.12;100.00
10261;BME280;5175;42.606;23.388;2023-12-20T11:12:36;93420.50;;;5.14;100.00
10261;BME280;5175;42.606;23.388;2023-12-20T11:15:05;93405.59;;;4.97;100.00
10261;BME280;5175;42.606;23.388;2023-12-20T11:17:33;93403.00;;;5.02;100.00
10261;BME280;5175;42.606;23.388;2023-12-20T11:20:08;93390.94;;;5.22;100.00
10261;BME280;5175;42.606;23.388;2023-12-20T11:22:37;93396.56;;;4.93;100.00
10261;BME280;5175;42.606;23.388;2023-12-20T11:25:08;93385.38;;;5.18;100.00
10261;BME280;5175;42.606;23.388;2023-12-20T11:27:40;93372.06;;;5.03;100.00
10261;BME280;5175;42.606;23.388;2023-12-20T11:30:07;93372.06;;;5.03;100.00
10261;BME280;5175;42.606;23.388;2023-12-20T11:32:35;93374.16;;;4.64;100.00
10261;BME280;5175;42.606;23.388;2023-12-20T11:35:17;93373.00;;;4.55;100.00
10261;BME280;5175;42.606;23.388;2023-12-20T11:37:45;93353.03;;;4.37;100.00
10261;BME280;5175;42.606;23.388;2023-12-20T11:40:14;93352.94;;;4.54;100.00
10261;BME280;5175;42.606;23.388;2023-12-20T11:42:44;93343.38;;;4.48;100.00
10261;BME280;5175;42.606;23.388;2023-12-20T11:45:14;93340.28;;;4.29;100.00
10261;BME280;5175;42.606;23.388;2023-12-20T11:47:42;93335.06;;;4.66;100.00
10261;BME280;5175;42.606;23.388;2023-12-20T11:50:09;93332.22;;;4.78;100.00
10261;BME280;5175;42.606;23.388;2023-12-20T11:52:36;93333.56;;;4.80;100.00
10261;BME280;5175;42.606;23.388;2023-12-20T11:55:03;93325.19;;;4.93;100.00
10261;BME280;5175;42.606;23.388;2023-12-20T11:57:30;93301.16;;;4.90;100.00
10261;BME280;5175;42.606;23.388;2023-12-20T11:59:58;93315.97;;;4.96;100.00
10261;BME280;5175;42.606;23.388;2023-12-20T12:02:25;93310.50;;;5.07;100.00
10261;BME280;5175;42.606;23.388;2023-12-20T12:04:52;93301.84;;;5.22;100.00
10261;BME280;5175;42.606;23.388;2023-12-20T12:07:19;93294.09;;;5.05;100.00
10261;BME280;5175;42.606;23.388;2023-12-20T12:09:46;93299.72;;;5.24;100.00
10261;BME280;5175;42.606;23.388;2023-12-20T12:12:13;93285.16;;;5.22;100.00
10261;BME280;5175;42.606;23.388;2023-12-20T12:14:40;93279.66;;;5.23;100.00
10261;BME280;5175;42.606;23.388;2023-12-20T12:17:11;93285.13;;;5.12;100.00
10261;BME280;5175;42.606;23.388;2023-12-20T12:19:38;93284.59;;;5.10;100.00
10261;BME280;5175;42.606;23.388;2023-12-20T12:22:06;93282.00;;;5.20;100.00
10261;BME280;5175;42.606;23.388;2023-12-20T12:24:35;93272.25;;;5.30;100.00
10261;BME280;5175;42.606;23.388;2023-12-20T12:27:02;93272.38;;;5.60;100.00
10261;BME280;5175;42.606;23.388;2023-12-20T12:29:29;93268.88;;;5.50;100.00
10261;BME280;5175;42.606;23.388;2023-12-20T12:31:56;93264.44;;;5.65;100.00
10261;BME280;5175;42.606;23.388;2023-12-20T12:34:24;93270.00;;;5.64;100.00
10261;BME280;5175;42.606;23.388;2023-12-20T12:36:52;93261.06;;;5.75;100.00
10261;BME280;5175;42.606;23.388;2023-12-20T12:39:19;93254.22;;;5.94;100.00
10261;BME280;5175;42.606;23.388;2023-12-20T12:41:46;93242.59;;;6.05;100.00
10261;BME280;5175;42.606;23.388;2023-12-20T12:44:13;93243.09;;;5.92;100.00
10261;BME280;5175;42.606;23.388;2023-12-20T12:46:40;93238.91;;;6.32;100.00
10261;BME280;5175;42.606;23.388;2023-12-20T12:49:06;93238.63;;;6.33;100.00
10261;BME280;5175;42.606;23.388;2023-12-20T12:51:34;93236.75;;;6.59;100.00
10261;BME280;5175;42.606;23.388;2023-12-20T12:54:01;93257.44;;;6.32;100.00
10261;BME280;5175;42.606;23.388;2023-12-20T12:56:28;93255.03;;;6.15;100.00